Главная страница
METAR-TAF:

METAR-TAF

Аэропорты :

Ивало, Финляндия

широта: 68-37N, долгота: 027-25E, высота над уровнем моря: 147 м

Текущие метеонаблюдения

Эта сводка был подготовлена 12 минут назад, в 15:50 UTC
Ветер 4 Узел от юго-юго-восточный
Температура -4°C
Влажность 80%
Давление 998 hPa
Видимость 10 км и более
Сплошная облачность на высоте 2400 фута

METAR: EFIV 151550Z 16004KT 9999 OVC024 M04/M07 Q0998

Время: 18:02 (16:02 UTC)

Прогноз

Эта сводка был подготовлена 1 час и 41 минут назад, в 14:21 UTC
Прогноз действительный с 15-го 15 UTC до 15-го 17 UTC
Ветер 8 Узел от южный
Видимость 10 км и более
Рассеянная облачность на высоте 3000 фута
временами
С 15-го 15 UTC до 15-го 17 UTC
Видимость: 7000 м
небольшой снег

TAF: EFIV 151421Z 1515/1517 18008KT 9999 BKN030 TEMPO 1515/1517 7000 -SN

Метеонаблюдения и прогнозы для более 4000 аэропортов (сводки METAR и TAF).

Имеющиеся станции представлены на карте желтыми и красными точками.

Чтобы увидеть название станции, наведите на нее мышь.

Затем щелкните, чтобы увидеть метеонаблюдения и метеопрогнозы.

Управление картой: чтобы увеличить масштаб, щелкните зеленые кнопки с черным крестиком; чтобы уменьшить масштаб, щелкните зеленую кнопку с тире; для просмотра соседних карт щелкайте зеленые стрелки.


METAR-TAF: